DW2182 Weather Reports


Display with metric or nautical units.
time (UTC)temp
F
wind
direction
speed
MPH
gust
MPH
rain 1hr
in
rain 24hr
in
rain mn
in
humidity
%
barometer
mb
20220808123017 63 0 2.0 5.0 0.00 0.31 0.00 96 1018.1
20220808122018 62 0 1.0 3.0 0.00 0.31 0.00 96 1018.0
20220808121017 62 0 1.0 4.0 0.00 0.31 0.00 95 1018.0
20220808120018 62 23 1.0 4.0 0.00 0.31 0.00 96 1017.9
20220808115017 62 0 2.0 4.0 0.00 0.32 0.00 97 1017.9
20220808114016 62 0.0 2.0 0.00 0.32 0.00 97 1017.8
20220808113017 62 23 2.0 6.0 0.00 0.32 0.00 97 1017.6
20220808112017 62 0 3.0 5.0 0.00 0.32 0.00 96 1017.5
20220808111017 62 0 2.0 4.0 0.00 0.32 0.00 96 1017.5
20220808110017 62 0 3.0 7.0 0.00 0.33 0.00 97 1017.3
20220808105017 62 0 2.0 5.0 0.00 0.33 0.00 96 1017.2
20220808104016 62 0 2.0 6.0 0.00 0.33 0.00 97 1017.1
20220808103017 62 0 2.0 5.0 0.00 0.33 0.00 96 1017.1
20220808102017 62 0 3.0 6.0 0.00 0.33 0.00 97 1017.0
20220808101017 62 0 2.0 6.0 0.00 0.33 0.00 97 1016.8
20220808100017 62 0 1.0 4.0 0.00 0.34 0.00 97 1016.8
20220808095016 62 0 2.0 4.0 0.00 0.34 0.00 97 1016.7
20220808094017 62 0 1.0 5.0 0.00 0.34 0.00 97 1016.6
20220808093017 62 0 2.0 8.0 0.00 0.34 0.00 97 1016.4
20220808092017 62 0 1.0 3.0 0.00 0.34 0.00 97 1016.2
20220808091017 62 0 1.0 5.0 0.00 0.35 0.00 97 1016.2
20220808090017 62 135 1.0 3.0 0.00 0.35 0.00 96 1016.3
20220808085017 63 23 2.0 5.0 0.00 0.35 0.00 96 1016.2
20220808084016 63 0 2.0 5.0 0.00 0.35 0.00 96 1016.2
20220808083017 63 203 2.0 5.0 0.00 0.35 0.00 97 1016.1
20220808082016 63 203 3.0 6.0 0.00 0.35 0.00 97 1016.1
20220808081016 63 0 2.0 7.0 0.00 0.35 0.00 98 1015.8
20220808080016 63 45 2.0 7.0 0.00 0.36 0.00 98 1016.0
20220808075017 63 158 2.0 4.0 0.00 0.36 0.00 98 1015.9
20220808074017 64 158 1.0 3.0 0.00 0.36 0.00 98 1015.8
20220808073016 64 0 1.0 5.0 0.00 0.36 0.00 98 1015.8
20220808072016 64 0.0 2.0 0.00 0.36 0.00 98 1016.0
20220808071017 64 0 2.0 7.0 0.00 0.36 0.00 98 1016.0
20220808070016 64 0 1.0 4.0 0.00 0.37 0.00 98 1016.0
20220808065017 64 0 1.0 5.0 0.00 0.37 0.00 98 1015.9
20220808064016 64 158 2.0 4.0 0.00 0.37 0.00 97 1015.9
20220808063016 64 0 3.0 5.0 0.00 0.37 0.00 98 1016.1
20220808062016 64 0 2.0 8.0 0.00 0.37 0.00 98 1016.1
20220808061016 64 0 2.0 6.0 0.00 0.37 0.00 98 1016.1
20220808060016 64 180 2.0 5.0 0.00 0.38 0.00 98 1015.9
20220808055016 64 0 1.0 4.0 0.00 0.38 0.00 98 1015.9
20220808054016 64 180 2.0 5.0 0.00 0.38 0.00 98 1015.9
20220808053017 64 225 1.0 4.0 0.00 0.38 0.00 98 1015.9
20220808052016 64 248 2.0 6.0 0.00 0.38 0.00 98 1015.9
20220808051016 64 248 1.0 3.0 0.00 0.38 0.00 98 1015.9
20220808050016 64 203 1.0 4.0 0.00 0.39 0.39 98 1016.0
20220808045017 64 0 1.0 3.0 0.01 0.39 0.39 98 1016.1
20220808044017 64 203 1.0 4.0 0.04 0.39 0.39 98 1016.2
20220808043017 64 248 2.0 5.0 0.06 0.39 0.39 98 1016.0
20220808042017 64 0 2.0 5.0 0.10 0.39 0.39 98 1016.2
20220808041017 64 23 2.0 7.0 0.11 0.40 0.39 98 1016.1
20220808040017 64 23 3.0 9.0 0.15 0.40 0.39 98 1016.2
20220808035017 64 0 2.0 7.0 0.17 0.39 0.38 97 1016.4
20220808034017 64 248 4.0 12.0 0.14 0.36 0.35 98 1016.3
20220808033016 64 23 3.0 8.0 0.12 0.34 0.33 97 1016.3
20220808032016 64 225 2.0 8.0 0.08 0.31 0.29 97 1016.5
20220808031016 65 23 4.0 10.0 0.08 0.30 0.28 96 1016.4
20220808030017 65 248 3.0 7.0 0.07 0.26 0.24 96 1016.3
20220808025017 65 23 3.0 9.0 0.06 0.23 0.21 96 1016.1
20220808024016 65 23 5.0 12.0 0.06 0.24 0.21 95 1015.7
20220808023016 66 23 4.0 12.0 0.06 0.24 0.21 95 1015.6
20220808022017 68 225 5.0 13.0 0.06 0.24 0.21 95 1015.6
20220808021017 69 248 5.0 20.0 0.05 0.23 0.20 96 1015.4
20220808020016 70 23 1.0 4.0 0.02 0.21 0.17 96 1015.0
20220808015017 70 203 4.0 10.0 0.00 0.19 0.15 95 1015.0
20220808014016 70 248 3.0 9.0 0.00 0.19 0.15 95 1014.5
20220808013017 70 225 2.0 4.0 0.00 0.19 0.15 96 1014.2
20220808012018 70 180 1.0 6.0 0.00 0.20 0.15 96 1014.0
20220808011017 70 0 2.0 5.0 0.00 0.20 0.15 96 1013.8
20220808010016 70 45 1.0 3.0 0.00 0.20 0.15 96 1013.7
20220808005016 71 45 1.0 3.0 0.00 0.21 0.15 96 1013.7
20220808004016 71 68 2.0 5.0 0.00 0.21 0.15 96 1013.4
20220808003017 71 23 2.0 4.0 0.00 0.21 0.15 96 1013.6
20220808002017 71 68 1.0 2.0 0.00 0.22 0.15 96 1013.7
20220808001016 71 45 2.0 3.0 0.00 0.22 0.15 96 1014.0
20220808000016 71 68 1.0 5.0 0.00 0.22 0.15 96 1013.9
20220807235016 71 45 2.0 5.0 0.00 0.23 0.15 95 1013.9
20220807234016 71 23 1.0 4.0 0.00 0.23 0.15 95 1014.0
20220807233016 71 45 2.0 4.0 0.00 0.23 0.15 94 1014.2
20220807232016 71 45 1.0 3.0 0.00 0.24 0.15 95 1014.1
20220807231016 71 248 2.0 5.0 0.00 0.24 0.15 95 1014.4
20220807230016 71 23 2.0 7.0 0.00 0.25 0.15 95 1014.4
20220807225016 71 0 3.0 7.0 0.00 0.25 0.15 95 1014.7
20220807224016 71 23 1.0 3.0 0.00 0.26 0.15 96 1014.6
20220807223016 71 225 1.0 4.0 0.00 0.26 0.15 95 1014.7
20220807222016 72 225 1.0 4.0 0.00 0.27 0.15 95 1014.8
20220807221016 72 225 1.0 3.0 0.00 0.27 0.15 95 1014.8
20220807220016 72 225 2.0 7.0 0.00 0.28 0.15 94 1014.6
20220807215016 72 23 2.0 5.0 0.00 0.28 0.15 94 1014.8
20220807214016 73 0 4.0 8.0 0.00 0.29 0.15 93 1014.9
20220807213016 73 23 2.0 4.0 0.00 0.29 0.15 92 1015.0
20220807212016 73 23 1.0 3.0 0.00 0.30 0.15 92 1015.2
20220807211016 73 23 2.0 3.0 0.00 0.31 0.15 91 1015.1
20220807210016 74 68 1.0 4.0 0.00 0.31 0.15 91 1015.3
20220807205016 74 68 1.0 3.0 0.00 0.32 0.15 91 1015.3
20220807204016 74 68 1.0 2.0 0.00 0.32 0.15 91 1015.3
20220807203016 74 68 1.0 3.0 0.00 0.33 0.15 91 1015.4
20220807202016 74 0.0 2.0 0.00 0.34 0.15 91 1015.4
20220807201016 73 68 1.0 3.0 0.00 0.34 0.15 92 1015.3
20220807200016 73 0.0 2.0 0.00 0.35 0.15 91 1015.3
20220807195016 73 68 1.0 4.0 0.00 0.36 0.15 90 1015.4
20220807194016 73 23 2.0 5.0 0.00 0.36 0.15 91 1015.3
20220807193016 74 45 2.0 5.0 0.00 0.37 0.15 90 1015.3
20220807192016 74 68 1.0 4.0 0.00 0.38 0.15 90 1015.5
20220807191015 74 248 2.0 5.0 0.00 0.39 0.15 90 1015.4
20220807190016 74 45 2.0 4.0 0.00 0.39 0.15 90 1015.5
20220807185016 74 23 2.0 5.0 0.00 0.40 0.15 89 1015.5
20220807184016 75 23 2.0 4.0 0.00 0.41 0.15 88 1015.7
20220807183016 74 23 1.0 4.0 0.00 0.42 0.15 91 1015.6
20220807182016 73 23 1.0 4.0 0.00 0.43 0.15 92 1015.7
20220807181016 73 0 2.0 4.0 0.00 0.44 0.15 90 1015.8
20220807180016 73 23 1.0 3.0 0.00 0.44 0.15 91 1015.9
20220807175016 73 23 2.0 4.0 0.00 0.45 0.15 91 1015.9
20220807174016 72 23 2.0 5.0 0.00 0.46 0.15 92 1015.6
20220807173016 72 0 2.0 5.0 0.00 0.47 0.15 91 1015.4
20220807172016 71 23 3.0 7.0 0.00 0.48 0.15 93 1015.6
20220807171016 71 45 2.0 4.0 0.00 0.49 0.15 93 1015.4
20220807170016 70 68 2.0 5.0 0.03 0.50 0.15 94 1015.2
20220807165017 70 23 3.0 8.0 0.03 0.51 0.15 93 1015.3
20220807164016 70 68 3.0 6.0 0.03 0.52 0.15 94 1015.3
20220807163015 70 23 2.0 9.0 0.03 0.53 0.15 94 1015.2
20220807162015 70 0 3.0 5.0 0.04 0.54 0.15 95 1015.4
20220807161015 69 23 1.0 4.0 0.04 0.55 0.15 97 1015.4
20220807160015 69 0 2.0 5.0 0.01 0.54 0.12 97 1015.3
20220807155015 69 203 1.0 3.0 0.01 0.55 0.12 97 1015.5
20220807154016 69 203 3.0 6.0 0.01 0.56 0.12 97 1015.0
20220807153016 68 45 2.0 5.0 0.02 0.57 0.12 97 1014.4
20220807152016 68 45 3.0 6.0 0.01 0.57 0.11 97 1014.6
20220807151016 68 68 2.0 6.0 0.01 0.57 0.11 97 1014.9
20220807150016 68 0 2.0 5.0 0.01 0.58 0.11 97 1015.1
20220807145015 68 23 3.0 8.0 0.01 0.58 0.11 98 1015.5
20220807144016 67 23 2.0 4.0 0.02 0.58 0.11 97 1015.3
20220807143015 67 68 2.0 5.0 0.01 0.58 0.10 98 1015.1
20220807142015 67 23 2.0 6.0 0.01 0.58 0.10 98 1015.4
20220807141015 67 23 2.0 5.0 0.01 0.58 0.10 98 1015.5
20220807140016 67 0 1.0 2.0 0.01 0.58 0.10 98 1016.1
20220807135015 67 0 1.0 3.0 0.01 0.58 0.10 99 1016.2
20220807134016 67 0 1.0 3.0 0.01 0.57 0.09 98 1015.9
20220807133015 66 0.0 1.0 0.01 0.57 0.09 99 1015.8
20220807132015 66 0.0 1.0 0.01 0.57 0.09 98 1016.0
20220807131015 67 0.0 2.0 0.01 0.57 0.09 98 1016.1
20220807130015 67 0 1.0 4.0 0.01 0.57 0.09 98 1016.2
20220807125015 67 0 1.0 3.0 0.02 0.57 0.09 98 1016.4
20220807124016 67 0.0 1.0 0.01 0.56 0.08 98 1016.1